createdAt,value
2022-12-17T00:01:56.013Z,19.73
2022-12-17T00:04:41.931Z,19.33
2022-12-17T00:07:27.617Z,20.70
2022-12-17T00:10:16.547Z,21.93
2022-12-17T00:13:01.867Z,21.87
2022-12-17T00:15:48.918Z,19.53
2022-12-17T00:18:34.113Z,23.27
2022-12-17T00:21:22.496Z,21.60
2022-12-17T00:24:11.236Z,20.17
2022-12-17T00:26:56.494Z,19.23
2022-12-17T00:29:41.821Z,21.07
2022-12-17T00:32:28.956Z,17.77
2022-12-17T00:35:14.303Z,19.07
2022-12-17T00:37:59.454Z,17.13
2022-12-17T00:40:44.826Z,15.77
2022-12-17T00:43:31.972Z,20.57
2022-12-17T00:46:18.109Z,17.47
2022-12-17T00:49:05.018Z,19.17
2022-12-17T00:51:50.292Z,18.87
2022-12-17T00:54:35.887Z,17.47
2022-12-17T00:57:21.062Z,21.27
2022-12-17T01:00:06.425Z,19.50
2022-12-17T01:02:52.297Z,18.63
2022-12-17T01:05:39.263Z,21.67
2022-12-17T01:08:29.063Z,18.67
2022-12-17T01:11:17.923Z,17.67
2022-12-17T01:14:03.622Z,20.90
2022-12-17T01:16:49.357Z,18.00
2022-12-17T01:19:34.671Z,20.93
2022-12-17T01:22:21.408Z,19.47
2022-12-17T01:25:08.070Z,22.03
2022-12-17T01:27:53.683Z,18.43
2022-12-17T01:30:41.516Z,20.00
2022-12-17T01:33:28.615Z,20.33
2022-12-17T01:36:14.471Z,18.00
2022-12-17T01:39:05.040Z,20.23
2022-12-17T01:41:50.209Z,18.13
2022-12-17T01:45:06.339Z,19.93
2022-12-17T01:47:59.316Z,21.50
2022-12-17T01:50:49.155Z,23.93
2022-12-17T01:53:37.110Z,24.80
2022-12-17T01:56:26.245Z,26.83
2022-12-17T01:59:12.446Z,25.63
2022-12-17T02:01:58.868Z,23.47
2022-12-17T02:04:44.724Z,26.50
2022-12-17T02:07:47.939Z,23.97
2022-12-17T02:10:42.398Z,25.77
2022-12-17T02:13:38.218Z,30.83
2022-12-17T02:16:32.531Z,30.27
2022-12-17T02:19:38.447Z,31.87
2022-12-17T02:22:30.207Z,29.73
2022-12-17T02:25:28.113Z,31.53
2022-12-17T02:28:15.311Z,33.23
2022-12-17T02:31:00.829Z,32.00
2022-12-17T02:33:46.706Z,30.63
2022-12-17T02:36:32.360Z,28.50
2022-12-17T02:39:17.554Z,27.20
2022-12-17T02:42:08.154Z,28.03
2022-12-17T02:44:56.909Z,28.30
2022-12-17T02:47:44.585Z,32.00
2022-12-17T02:50:30.970Z,31.17
2022-12-17T02:53:18.826Z,27.70
2022-12-17T02:56:04.570Z,25.63
2022-12-17T02:58:49.928Z,28.63
2022-12-17T03:01:37.079Z,29.37
2022-12-17T03:04:28.691Z,29.93
2022-12-17T03:07:14.210Z,28.17
2022-12-17T03:09:59.717Z,26.87
2022-12-17T03:12:46.926Z,30.93
2022-12-17T03:15:32.943Z,25.10
2022-12-17T03:18:34.144Z,23.63
2022-12-17T03:21:19.751Z,28.13
2022-12-17T03:24:13.781Z,27.73
2022-12-17T03:26:59.217Z,30.13
2022-12-17T03:29:44.737Z,28.97
2022-12-17T03:32:30.076Z,24.97
2022-12-17T03:35:16.667Z,30.87
2022-12-17T03:38:02.159Z,30.30
2022-12-17T03:40:49.751Z,28.47
2022-12-17T03:43:35.588Z,27.47
2022-12-17T03:46:21.121Z,26.53
2022-12-17T03:49:06.294Z,29.17
2022-12-17T03:51:55.084Z,29.67
2022-12-17T03:54:52.243Z,27.63
2022-12-17T03:57:37.865Z,29.13
2022-12-17T04:00:24.288Z,31.00
2022-12-17T04:03:09.802Z,25.43
2022-12-17T04:05:55.081Z,26.70
2022-12-17T04:08:41.866Z,30.00
2022-12-17T04:11:27.340Z,26.50
2022-12-17T04:14:13.086Z,30.40
2022-12-17T04:16:58.445Z,24.83
2022-12-17T04:19:43.672Z,27.93
2022-12-17T04:22:29.670Z,31.17
2022-12-17T04:25:16.540Z,26.83
2022-12-17T04:28:01.845Z,27.93
2022-12-17T04:30:47.331Z,27.00
2022-12-17T04:33:32.796Z,30.07
2022-12-17T04:36:18.553Z,24.53
2022-12-17T04:39:04.424Z,28.57
2022-12-17T04:41:51.356Z,27.50
2022-12-17T04:44:36.773Z,25.57
2022-12-17T04:47:22.149Z,27.00
2022-12-17T04:50:07.348Z,31.30
2022-12-17T04:52:52.776Z,28.77
2022-12-17T04:55:38.294Z,28.37
2022-12-17T04:58:26.021Z,31.37
2022-12-17T05:01:12.076Z,27.97
2022-12-17T05:03:58.065Z,28.60
2022-12-17T05:06:44.359Z,25.77
2022-12-17T05:09:29.697Z,29.47
2022-12-17T05:12:15.128Z,29.27
2022-12-17T05:15:01.752Z,28.27
2022-12-17T05:17:46.984Z,27.93
2022-12-17T05:20:32.219Z,28.00
2022-12-17T05:23:23.503Z,24.90
2022-12-17T05:26:21.352Z,29.23
2022-12-17T05:29:08.032Z,31.80
2022-12-17T05:31:56.850Z,31.73
2022-12-17T05:34:42.251Z,24.47
2022-12-17T05:37:27.926Z,35.40
2022-12-17T05:40:13.231Z,33.60
2022-12-17T05:42:58.730Z,31.30
2022-12-17T05:45:44.181Z,28.73
2022-12-17T05:48:32.965Z,30.40
2022-12-17T05:51:18.287Z,30.03
2022-12-17T05:54:03.926Z,33.30
2022-12-17T05:56:49.112Z,32.07
2022-12-17T05:59:39.565Z,28.93
2022-12-17T06:02:25.136Z,34.93
2022-12-17T06:05:11.595Z,32.83
2022-12-17T06:07:56.871Z,28.77
2022-12-17T06:10:42.085Z,28.30
2022-12-17T06:13:27.564Z,26.03
2022-12-17T06:16:13.482Z,26.40
2022-12-17T06:18:59.304Z,31.73
2022-12-17T06:21:46.073Z,28.30
2022-12-17T06:24:31.651Z,26.50
2022-12-17T06:27:17.247Z,25.73
2022-12-17T06:30:02.582Z,29.40
2022-12-17T06:32:47.969Z,26.13
2022-12-17T06:35:33.405Z,28.23
2022-12-17T06:38:17.974Z,24.33
2022-12-17T06:41:03.416Z,27.10
2022-12-17T06:43:48.983Z,27.10
2022-12-17T06:46:34.348Z,27.23
2022-12-17T06:49:19.840Z,25.80
2022-12-17T06:52:05.129Z,29.13
2022-12-17T06:54:51.916Z,22.33
2022-12-17T06:57:41.160Z,29.23
2022-12-17T07:00:29.650Z,27.20
2022-12-17T07:03:15.181Z,26.17
2022-12-17T07:06:01.093Z,31.23
2022-12-17T07:08:47.107Z,28.30
2022-12-17T07:11:33.769Z,27.27
2022-12-17T07:14:19.282Z,26.23
2022-12-17T07:17:04.618Z,30.07
2022-12-17T07:19:49.924Z,24.10
2022-12-17T07:22:35.646Z,25.37
2022-12-17T07:25:21.029Z,29.20
2022-12-17T07:28:12.846Z,27.03
2022-12-17T07:30:58.300Z,29.87
2022-12-17T07:33:43.535Z,26.80
2022-12-17T07:36:28.720Z,26.17
2022-12-17T07:39:14.016Z,26.47
2022-12-17T07:41:59.306Z,30.17
2022-12-17T07:44:46.014Z,28.53
2022-12-17T07:47:31.385Z,32.03
2022-12-17T07:50:16.734Z,24.10
2022-12-17T07:53:10.461Z,31.87
2022-12-17T07:55:55.739Z,38.43
2022-12-17T07:58:41.097Z,31.83
2022-12-17T08:01:27.714Z,33.50
2022-12-17T08:04:24.620Z,31.00
2022-12-17T08:07:13.910Z,27.87
2022-12-17T08:09:59.520Z,30.50
2022-12-17T08:12:44.764Z,33.63
2022-12-17T08:15:30.032Z,38.27
2022-12-17T08:18:26.172Z,28.27
2022-12-17T08:21:12.520Z,26.90
2022-12-17T08:23:57.909Z,29.43
2022-12-17T08:26:47.777Z,36.07
2022-12-17T08:29:33.861Z,32.40
2022-12-17T08:32:19.028Z,32.37
2022-12-17T08:35:05.518Z,39.50
2022-12-17T08:37:50.778Z,35.57
2022-12-17T08:40:36.225Z,36.83
2022-12-17T08:43:21.592Z,34.30
2022-12-17T08:46:07.820Z,31.47
2022-12-17T08:48:54.248Z,30.10
2022-12-17T08:51:41.802Z,32.73
2022-12-17T08:54:33.004Z,32.97
2022-12-17T08:57:30.746Z,26.43
2022-12-17T09:00:17.127Z,32.00
2022-12-17T09:03:02.601Z,32.13
2022-12-17T09:05:48.331Z,32.73
2022-12-17T09:08:34.917Z,30.60
2022-12-17T09:11:20.069Z,33.67
2022-12-17T09:14:05.437Z,35.03
2022-12-17T09:16:51.155Z,32.50
2022-12-17T09:19:36.562Z,35.47
2022-12-17T09:22:24.088Z,40.20
2022-12-17T09:25:10.954Z,41.33
2022-12-17T09:27:56.416Z,36.97
2022-12-17T09:30:41.775Z,33.70
2022-12-17T09:33:32.876Z,36.27
2022-12-17T09:36:23.754Z,34.90
2022-12-17T09:39:05.694Z,31.63
2022-12-17T09:42:01.591Z,29.07
2022-12-17T09:44:57.263Z,35.33
2022-12-17T09:47:55.409Z,26.07
2022-12-17T09:50:41.132Z,33.67
2022-12-17T09:53:37.748Z,37.27
2022-12-17T09:56:25.425Z,25.43
2022-12-17T09:59:12.346Z,28.23
2022-12-17T10:01:59.510Z,30.93
2022-12-17T10:04:52.635Z,28.27
2022-12-17T10:07:41.105Z,25.47
2022-12-17T10:10:36.905Z,29.83
2022-12-17T10:13:29.304Z,28.80
2022-12-17T10:16:15.913Z,30.53
2022-12-17T10:19:02.334Z,28.67
2022-12-17T10:21:48.657Z,28.77
2022-12-17T10:24:33.763Z,27.53
2022-12-17T10:27:28.217Z,31.60
2022-12-17T10:30:28.107Z,32.10
2022-12-17T10:33:15.952Z,30.67
2022-12-17T10:36:01.674Z,28.80
2022-12-17T10:38:48.972Z,27.93
2022-12-17T10:41:42.997Z,30.27
2022-12-17T10:44:40.042Z,27.80
2022-12-17T10:47:30.957Z,28.83
2022-12-17T10:50:20.388Z,27.30
2022-12-17T10:53:07.467Z,29.27
2022-12-17T10:55:54.621Z,29.80
2022-12-17T10:58:41.924Z,30.33
2022-12-17T11:01:31.187Z,27.93
2022-12-17T11:04:28.612Z,25.80
2022-12-17T11:07:16.241Z,26.13
2022-12-17T11:10:09.512Z,27.60
2022-12-17T11:12:59.668Z,26.90
2022-12-17T11:15:51.440Z,33.07
2022-12-17T11:18:40.841Z,26.67
2022-12-17T11:21:31.503Z,27.03
2022-12-17T11:24:22.741Z,26.67
2022-12-17T11:27:12.520Z,28.47
2022-12-17T11:29:57.904Z,27.20
2022-12-17T11:32:59.663Z,27.97
2022-12-17T11:35:46.930Z,28.83
2022-12-17T11:38:48.870Z,33.70
2022-12-17T11:41:44.143Z,30.00
2022-12-17T11:44:43.140Z,27.17
2022-12-17T11:47:38.892Z,30.53
2022-12-17T11:50:34.801Z,27.30
2022-12-17T11:53:28.136Z,27.23
2022-12-17T11:56:22.430Z,24.70
2022-12-17T11:59:13.756Z,25.90
2022-12-17T12:02:08.452Z,31.80
2022-12-17T12:05:10.313Z,30.63
2022-12-17T12:08:04.409Z,29.83
2022-12-17T12:10:56.878Z,28.83
2022-12-17T12:13:51.095Z,31.10
2022-12-17T12:16:44.864Z,41.83
2022-12-17T12:19:40.952Z,37.37
2022-12-17T12:22:35.250Z,41.47
2022-12-17T12:25:37.549Z,30.70
2022-12-17T12:28:32.318Z,31.30
2022-12-17T12:31:27.808Z,34.10
2022-12-17T12:34:18.814Z,32.87
2022-12-17T12:37:06.579Z,30.80
2022-12-17T12:39:56.923Z,31.27
2022-12-17T12:42:52.109Z,26.30
2022-12-17T12:45:59.268Z,35.47
2022-12-17T12:48:57.808Z,31.53
2022-12-17T12:51:47.998Z,30.70
2022-12-17T12:54:44.232Z,32.30
2022-12-17T12:57:51.153Z,30.03
2022-12-17T13:00:42.693Z,29.33
2022-12-17T13:03:51.728Z,30.30
2022-12-17T13:06:46.345Z,32.13
2022-12-17T13:09:47.700Z,36.77
2022-12-17T13:12:24.258Z,33.57
2022-12-17T13:15:05.148Z,37.03
2022-12-17T13:17:37.623Z,32.43
2022-12-17T13:20:26.263Z,34.63
2022-12-17T13:23:26.698Z,37.40
2022-12-17T13:26:14.745Z,31.87
2022-12-17T13:28:44.224Z,34.03
2022-12-17T13:31:19.000Z,39.83
2022-12-17T13:33:53.649Z,35.67
2022-12-17T13:36:29.065Z,34.27
2022-12-17T13:39:04.710Z,39.07
2022-12-17T13:41:34.934Z,33.00
2022-12-17T13:44:05.757Z,37.53
2022-12-17T13:46:47.250Z,38.63
2022-12-17T13:49:20.092Z,38.73
2022-12-17T13:51:48.072Z,34.50
2022-12-17T13:54:19.330Z,41.27
2022-12-17T13:56:47.609Z,42.20
2022-12-17T13:59:21.097Z,34.90
2022-12-17T14:01:51.181Z,38.97
2022-12-17T14:04:24.754Z,41.33
2022-12-17T14:06:53.933Z,40.37
2022-12-17T14:09:28.269Z,40.27
2022-12-17T14:12:18.850Z,39.93
2022-12-17T14:14:49.114Z,38.30
2022-12-17T14:17:20.118Z,35.33
2022-12-17T14:19:49.803Z,39.27
2022-12-17T14:22:21.868Z,42.53
2022-12-17T14:24:51.423Z,42.70
2022-12-17T14:27:24.719Z,42.13
2022-12-17T14:29:52.918Z,31.87
2022-12-17T14:32:26.331Z,33.27
2022-12-17T14:35:00.609Z,34.80
2022-12-17T14:37:30.134Z,38.37
2022-12-17T14:40:04.990Z,40.07
2022-12-17T14:42:37.612Z,36.63
2022-12-17T14:45:09.056Z,37.53
2022-12-17T14:47:45.724Z,44.67
2022-12-17T14:50:30.708Z,35.80
2022-12-17T14:53:00.261Z,37.90
2022-12-17T14:55:36.707Z,36.50
2022-12-17T14:58:18.372Z,36.43
2022-12-17T15:00:49.489Z,37.53
2022-12-17T15:03:29.195Z,37.73
2022-12-17T15:06:02.416Z,35.87
2022-12-17T15:08:36.352Z,35.77
2022-12-17T15:11:06.239Z,31.60
2022-12-17T15:13:34.393Z,36.20
2022-12-17T15:16:02.357Z,33.90
2022-12-17T15:18:30.230Z,34.40
2022-12-17T15:20:58.150Z,37.13
2022-12-17T15:23:26.449Z,35.60
2022-12-17T15:25:55.325Z,36.53
2022-12-17T15:28:24.667Z,37.00
2022-12-17T15:30:52.651Z,40.27
2022-12-17T15:33:20.461Z,42.23
2022-12-17T15:35:49.061Z,38.90
2022-12-17T15:38:18.014Z,38.67
2022-12-17T15:40:45.924Z,41.63
2022-12-17T15:43:13.358Z,43.23
2022-12-17T15:45:45.944Z,41.40
2022-12-17T15:48:18.967Z,45.43
2022-12-17T15:50:47.285Z,45.43
2022-12-17T15:53:16.028Z,52.87
2022-12-17T15:55:44.998Z,48.10
2022-12-17T15:58:13.918Z,42.73
2022-12-17T16:00:43.096Z,43.20
2022-12-17T16:03:11.133Z,39.10
2022-12-17T16:05:39.070Z,41.80
2022-12-17T16:08:07.713Z,46.30
2022-12-17T16:10:35.448Z,51.27
2022-12-17T16:13:03.471Z,47.90
2022-12-17T16:15:31.517Z,45.77
2022-12-17T16:18:00.982Z,50.17
2022-12-17T16:20:28.810Z,43.87
2022-12-17T16:22:56.716Z,42.67
2022-12-17T16:25:24.618Z,46.10
2022-12-17T16:27:52.445Z,47.00
2022-12-17T16:30:20.912Z,40.47
2022-12-17T16:32:48.801Z,48.03
2022-12-17T16:35:18.092Z,46.20
2022-12-17T16:37:46.133Z,51.23
2022-12-17T16:40:14.161Z,49.33
2022-12-17T16:42:42.012Z,41.67
2022-12-17T16:45:10.981Z,44.83
2022-12-17T16:47:39.627Z,50.27
2022-12-17T16:50:07.664Z,46.23
2022-12-17T16:52:36.821Z,42.43
2022-12-17T16:55:04.997Z,51.90
2022-12-17T16:57:32.885Z,42.67
2022-12-17T17:00:00.856Z,43.40
2022-12-17T17:02:28.865Z,39.40
2022-12-17T17:04:56.957Z,41.60
2022-12-17T17:07:26.725Z,37.77
2022-12-17T17:09:56.142Z,40.63
2022-12-17T17:12:25.346Z,47.93
2022-12-17T17:14:53.235Z,45.97
2022-12-17T17:17:54.356Z,46.20
2022-12-17T17:20:12.047Z,46.90
2022-12-17T17:22:39.956Z,42.60
2022-12-17T17:25:09.789Z,43.93
2022-12-17T17:27:37.652Z,48.40
2022-12-17T17:30:06.479Z,50.70
2022-12-17T17:32:34.367Z,43.37
2022-12-17T17:35:02.342Z,43.53
2022-12-17T17:37:31.360Z,46.13
2022-12-17T17:39:59.222Z,47.60
2022-12-17T17:42:28.428Z,43.87
2022-12-17T17:44:56.282Z,43.03
2022-12-17T17:47:24.193Z,39.53
2022-12-17T17:49:52.055Z,45.40
2022-12-17T17:52:19.845Z,42.37
2022-12-17T17:54:48.702Z,41.23
2022-12-17T17:57:16.707Z,38.40
2022-12-17T17:59:45.996Z,44.40
2022-12-17T18:02:14.035Z,39.10
2022-12-17T18:04:47.360Z,38.37
2022-12-17T18:07:26.473Z,40.27
2022-12-17T18:09:55.508Z,42.57
2022-12-17T18:12:42.667Z,42.60
2022-12-17T18:15:15.407Z,32.77
2022-12-17T18:17:45.974Z,31.60
2022-12-17T18:20:14.684Z,29.10
2022-12-17T18:22:42.616Z,33.27
2022-12-17T18:25:12.258Z,34.57
2022-12-17T18:27:49.898Z,31.67
2022-12-17T18:30:19.840Z,29.13
2022-12-17T18:32:50.508Z,31.17
2022-12-17T18:35:18.597Z,37.90
2022-12-17T18:37:46.834Z,34.83
2022-12-17T18:40:14.787Z,33.20
2022-12-17T18:43:00.166Z,37.90
2022-12-17T18:45:29.371Z,39.60
2022-12-17T18:47:57.277Z,37.93
2022-12-17T18:50:25.305Z,29.27
2022-12-17T18:52:53.836Z,34.23
2022-12-17T18:55:21.793Z,34.40
2022-12-17T18:57:49.733Z,38.67
2022-12-17T19:00:18.610Z,35.47
2022-12-17T19:02:48.505Z,44.87
2022-12-17T19:05:17.230Z,35.33
2022-12-17T19:07:45.136Z,39.30
2022-12-17T19:10:13.055Z,40.77
2022-12-17T19:12:40.877Z,42.27
2022-12-17T19:15:10.144Z,37.10
2022-12-17T19:17:38.847Z,40.37
2022-12-17T19:20:09.984Z,32.07
2022-12-17T19:22:37.857Z,34.97
2022-12-17T19:25:06.390Z,32.57
2022-12-17T19:27:37.115Z,30.90
2022-12-17T19:30:06.103Z,34.37
2022-12-17T19:32:34.068Z,34.10
2022-12-17T19:35:02.115Z,32.40
2022-12-17T19:37:31.344Z,33.60
2022-12-17T19:39:59.420Z,31.60
2022-12-17T19:42:33.426Z,35.23
2022-12-17T19:45:03.540Z,30.70
2022-12-17T19:47:31.455Z,34.80
2022-12-17T19:49:59.263Z,31.07
2022-12-17T19:52:27.089Z,30.67
2022-12-17T19:54:56.295Z,32.10
2022-12-17T19:57:24.208Z,37.13
2022-12-17T19:59:52.201Z,30.50
2022-12-17T20:02:24.936Z,40.47
2022-12-17T20:04:59.321Z,36.00
2022-12-17T20:07:27.495Z,38.67
2022-12-17T20:09:57.064Z,37.47
2022-12-17T20:12:25.117Z,35.80
2022-12-17T20:14:53.129Z,39.53
2022-12-17T20:17:21.281Z,28.90
2022-12-17T20:19:49.326Z,29.30
2022-12-17T20:22:17.233Z,32.67
2022-12-17T20:24:45.135Z,33.50
2022-12-17T20:27:14.288Z,37.83
2022-12-17T20:30:02.689Z,24.67
2022-12-17T20:32:30.693Z,34.97
2022-12-17T20:34:58.780Z,36.07
2022-12-17T20:37:26.753Z,38.33
2022-12-17T20:39:55.157Z,40.20
2022-12-17T20:42:24.335Z,35.87
2022-12-17T20:44:53.645Z,37.07
2022-12-17T20:47:21.752Z,37.67
2022-12-17T20:49:49.656Z,39.93
2022-12-17T20:52:17.644Z,47.57
2022-12-17T20:54:45.522Z,44.10
2022-12-17T20:57:13.389Z,43.20
2022-12-17T20:59:42.772Z,43.00
2022-12-17T21:02:11.546Z,42.37
2022-12-17T21:04:39.592Z,40.87
2022-12-17T21:07:07.426Z,37.57
2022-12-17T21:09:35.246Z,42.83
2022-12-17T21:12:03.145Z,40.57
2022-12-17T21:14:35.559Z,36.33
2022-12-17T21:17:05.534Z,41.67
2022-12-17T21:19:33.536Z,38.80
2022-12-17T21:22:01.928Z,42.70
2022-12-17T21:24:29.817Z,38.73
2022-12-17T21:26:57.952Z,34.57
2022-12-17T21:29:26.133Z,39.03
2022-12-17T21:31:54.035Z,37.47
2022-12-17T21:34:25.229Z,32.40
2022-12-17T21:36:53.269Z,35.77
2022-12-17T21:39:21.966Z,34.17
2022-12-17T21:42:03.880Z,34.27
2022-12-17T21:44:32.075Z,36.80
2022-12-17T21:46:59.988Z,34.43
2022-12-17T21:49:29.246Z,38.60
2022-12-17T21:51:59.176Z,37.97
2022-12-17T21:54:27.319Z,36.50
2022-12-17T21:56:55.160Z,32.63
2022-12-17T21:59:23.351Z,35.37
2022-12-17T22:01:52.103Z,39.70
2022-12-17T22:04:20.162Z,36.73
2022-12-17T22:06:55.731Z,41.23
2022-12-17T22:09:45.560Z,39.40
2022-12-17T22:12:34.000Z,39.60
2022-12-17T22:15:01.965Z,43.00
2022-12-17T22:17:30.270Z,49.37
2022-12-17T22:19:58.048Z,40.73
2022-12-17T22:22:27.241Z,37.03
2022-12-17T22:24:55.308Z,41.37
2022-12-17T22:27:23.984Z,39.57
2022-12-17T22:30:09.399Z,43.47
2022-12-17T22:32:54.754Z,44.70
2022-12-17T22:36:10.198Z,40.27
2022-12-17T22:42:50.407Z,38.57
2022-12-17T22:44:34.012Z,37.10
2022-12-17T22:44:44.522Z,34.23
2022-12-17T22:46:41.602Z,37.30
2022-12-17T22:49:10.041Z,36.87
2022-12-17T22:51:38.571Z,35.17
2022-12-17T22:54:13.657Z,38.47
2022-12-17T22:57:27.997Z,35.10
2022-12-17T22:59:32.185Z,41.60
2022-12-17T23:02:00.248Z,41.63
2022-12-17T23:04:28.147Z,41.40
2022-12-17T23:06:58.166Z,35.90
2022-12-17T23:09:27.865Z,33.77
2022-12-17T23:11:55.739Z,35.10
2022-12-17T23:14:23.894Z,42.97
2022-12-17T23:16:51.681Z,36.47
2022-12-17T23:19:19.553Z,38.53
2022-12-17T23:21:47.362Z,37.03
2022-12-17T23:24:15.128Z,34.13
2022-12-17T23:26:44.322Z,34.63
2022-12-17T23:29:19.401Z,40.33
2022-12-17T23:31:48.191Z,44.47
2022-12-17T23:34:16.363Z,33.77
2022-12-17T23:36:44.187Z,36.47
2022-12-17T23:39:12.123Z,31.13
2022-12-17T23:41:39.941Z,38.40
2022-12-17T23:44:09.037Z,35.43
2022-12-17T23:46:36.857Z,35.60
2022-12-17T23:49:05.984Z,35.13
2022-12-17T23:51:34.575Z,32.90
2022-12-17T23:54:02.496Z,29.40
2022-12-17T23:56:30.480Z,37.90
2022-12-17T23:59:00.363Z,31.13
